CW7368 Weather Reports


Display with metric or nautical units.
time (UTC)temp
F
wind
direction
speed
MPH
gust
MPH
rain 1hr
in
rain 24hr
in
rain mn
in
humidity
%
barometer
mb
20190124083304 58 57 5.0 12.0 0.00 0.01 0.00 63 1015.1
20190124082805 58 61 5.0 13.0 0.00 0.01 0.00 63 1015.1
20190124082304 58 57 6.0 13.0 0.00 0.01 0.00 63 1015.0
20190124081805 58 65 5.0 12.0 0.00 0.01 0.00 62 1014.9
20190124081304 57 80 4.0 10.0 0.00 0.01 0.00 62 1014.9
20190124080805 57 60 7.0 13.0 0.00 0.02 0.00 62 1014.7
20190124080305 58 69 7.0 14.0 0.00 0.02 0.00 61 1014.6
20190124075805 58 78 6.0 14.0 0.00 0.02 0.00 60 1014.6
20190124075305 58 69 9.0 15.0 0.00 0.02 0.00 60 1014.7
20190124074805 58 72 5.0 14.0 0.00 0.02 0.00 60 1014.8
20190124074305 58 60 5.0 12.0 0.00 0.02 0.00 58 1014.9
20190124073805 58 74 4.0 9.0 0.00 0.02 0.00 57 1014.8
20190124073304 58 62 7.0 14.0 0.00 0.02 0.00 56 1014.8
20190124072805 58 74 5.0 12.0 0.00 0.03 0.00 56 1014.8
20190124072305 58 89 6.0 14.0 0.00 0.03 0.00 56 1014.7
20190124071804 58 70 4.0 14.0 0.00 0.04 0.00 56 1014.6
20190124071305 58 61 6.0 15.0 0.00 0.04 0.00 55 1014.5
20190124070805 58 74 7.0 16.0 0.00 0.04 0.00 55 1014.4
20190124070304 58 82 7.0 16.0 0.00 0.05 0.00 54 1014.3
20190124065804 58 78 8.0 17.0 0.00 0.05 0.00 55 1014.2
20190124065304 58 73 8.0 16.0 0.00 0.06 0.00 55 1014.1
20190124064805 58 69 9.0 18.0 0.00 0.06 0.00 54 1014.0
20190124064305 59 72 9.0 13.0 0.00 0.06 0.00 55 1014.0
20190124063805 59 83 6.0 13.0 0.00 0.06 0.00 54 1014.1
20190124063304 59 92 6.0 16.0 0.00 0.06 0.00 54 1013.9
20190124062805 59 56 7.0 18.0 0.00 0.06 0.00 52 1014.0
20190124062304 59 84 9.0 17.0 0.00 0.06 0.00 53 1013.9
20190124061805 59 75 7.0 15.0 0.00 0.06 0.00 54 1013.8
20190124061305 59 80 9.0 16.0 0.00 0.06 0.00 54 1013.8
20190124060805 60 108 5.0 12.0 0.00 0.07 0.00 54 1013.8
20190124060304 60 70 6.0 13.0 0.00 0.07 0.00 53 1013.7
20190124055804 60 58 7.0 15.0 0.00 0.07 0.00 53 1013.7
20190124055304 59 95 7.0 14.0 0.00 0.07 0.00 53 1013.7
20190124054805 59 64 9.0 18.0 0.00 0.07 0.00 53 1013.5
20190124054304 59 71 10.0 17.0 0.00 0.08 0.00 53 1013.4
20190124053805 59 81 9.0 20.0 0.00 0.09 0.00 54 1013.4
20190124053304 59 62 10.0 15.0 0.00 0.10 0.00 51 1013.4
20190124052805 59 71 12.0 20.0 0.00 0.12 0.00 53 1013.5
20190124052305 60 92 9.0 18.0 0.00 0.13 0.00 52 1013.4
20190124051805 60 78 7.0 17.0 0.00 0.14 0.00 54 1013.2
20190124051305 60 81 8.0 17.0 0.00 0.16 0.00 52 1013.2
20190124050805 60 79 9.0 14.0 0.00 0.17 0.00 53 1013.4
20190124050304 61 58 5.0 15.0 0.00 0.17 0.00 53 1013.5
20190124045805 61 80 8.0 12.0 0.00 0.18 0.00 53 1013.6
20190124045305 60 73 9.0 18.0 0.00 0.18 0.00 53 1013.6
20190124044804 61 52 9.0 17.0 0.00 0.18 0.00 53 1013.5
20190124044305 61 87 9.0 14.0 0.00 0.18 0.00 53 1013.6
20190124043805 61 66 7.0 14.0 0.00 0.18 0.00 52 1013.6
20190124043305 61 97 9.0 14.0 0.00 0.18 0.00 53 1013.6
20190124042804 61 75 8.0 15.0 0.00 0.18 0.00 53 1013.6
20190124042304 61 99 7.0 14.0 0.00 0.18 0.00 53 1013.7
20190124041805 61 73 8.0 16.0 0.00 0.18 0.00 54 1013.7
20190124041305 61 67 9.0 18.0 0.00 0.18 0.00 52 1013.7
20190124040805 62 70 5.0 12.0 0.00 0.18 0.00 54 1013.8
20190124040305 61 101 9.0 15.0 0.00 0.18 0.00 53 1013.8
20190124035804 62 50 7.0 14.0 0.00 0.18 0.00 52 1013.7
20190124035305 61 66 7.0 14.0 0.00 0.18 0.00 53 1013.6
20190124034805 61 74 8.0 17.0 0.00 0.18 0.00 53 1013.6
20190124034305 62 64 7.0 16.0 0.00 0.18 0.00 53 1013.7
20190124033805 62 78 8.0 17.0 0.00 0.18 0.00 53 1013.7
20190124033304 62 76 8.0 17.0 0.00 0.18 0.00 52 1013.6
20190124032805 63 61 6.0 13.0 0.00 0.18 0.00 52 1013.6
20190124032306 63 69 8.0 14.0 0.00 0.18 0.00 53 1013.6
20190124031805 63 58 5.0 15.0 0.00 0.18 0.00 52 1013.6
20190124031305 62 76 6.0 13.0 0.00 0.18 0.00 53 1013.6
20190124030805 62 109 8.0 14.0 0.00 0.18 0.00 52 1013.6
20190124030305 63 115 5.0 12.0 0.00 0.18 0.00 52 1013.5
20190124025804 63 111 6.0 12.0 0.00 0.18 0.00 52 1013.5
20190124025305 64 125 5.0 12.0 0.00 0.18 0.00 53 1013.6
20190124024806 63 56 6.0 17.0 0.00 0.18 0.00 52 1013.6
20190124024305 63 78 3.0 12.0 0.00 0.18 0.00 53 1013.5
20190124023804 63 73 6.0 13.0 0.00 0.18 0.00 52 1013.6
20190124023305 63 73 5.0 12.0 0.00 0.18 0.00 52 1013.6
20190124022805 63 83 7.0 14.0 0.00 0.18 0.00 53 1013.7
20190124022305 62 81 9.0 15.0 0.00 0.18 0.00 53 1013.7
20190124021804 62 102 6.0 12.0 0.00 0.18 0.00 53 1013.7
20190124021304 63 41 5.0 13.0 0.00 0.18 0.00 53 1013.7
20190124020804 62 81 9.0 16.0 0.00 0.18 0.00 53 1013.6
20190124020304 63 71 7.0 13.0 0.00 0.18 0.00 52 1013.5
20190124015804 62 74 5.0 12.0 0.00 0.18 0.00 54 1013.6
20190124015305 64 74 6.0 13.0 0.00 0.18 0.00 52 1013.6
20190124014805 66 71 5.0 15.0 0.00 0.18 0.00 49 1013.5
20190124014304 65 85 6.0 18.0 0.00 0.18 0.00 49 1013.6
20190124013805 65 109 3.0 8.0 0.00 0.18 0.00 49 1013.6
20190124013304 64 85 3.0 12.0 0.00 0.18 0.00 49 1013.6
20190124012804 64 86 5.0 12.0 0.00 0.18 0.00 50 1013.5
20190124012305 63 61 1.0 9.0 0.00 0.18 0.00 48 1013.6
20190124011804 64 71 5.0 10.0 0.00 0.18 0.00 48 1013.7
20190124011305 63 101 0.0 3.0 0.00 0.18 0.00 52 1013.5
20190124010807 63 101 1.0 6.0 0.00 0.18 0.00 50 1013.5
20190124010305 63 101 2.0 8.0 0.00 0.18 0.00 51 1013.5
20190124005804 63 71 3.0 12.0 0.00 0.18 0.00 50 1013.6
20190124005305 64 90 5.0 12.0 0.00 0.18 0.00 48 1013.5
20190124004804 65 87 0.0 8.0 0.00 0.18 0.00 46 1013.6
20190124004305 65 115 2.0 9.0 0.00 0.18 0.00 48 1013.5
20190124003804 65 115 5.0 10.0 0.00 0.18 0.00 46 1013.5
20190124003305 65 94 5.0 12.0 0.00 0.18 0.00 49 1013.4
20190124002805 65 111 3.0 10.0 0.00 0.18 0.00 47 1013.4
20190124002305 65 84 3.0 10.0 0.00 0.18 0.00 47 1013.5
20190124001804 66 358 4.0 8.0 0.00 0.18 0.00 45 1013.5
20190124001305 67 260 1.0 3.0 0.00 0.18 0.00 44 1013.5
20190124000804 66 260 1.0 7.0 0.00 0.18 0.00 43 1013.5
20190124000305 67 269 0.0 2.0 0.00 0.18 0.00 44 1013.5
20190123235805 66 269 1.0 3.0 0.00 0.18 0.00 45 1013.5
20190123235304 66 269 1.0 3.0 0.00 0.18 0.00 41 1013.6
20190123234804 67 269 0.0 3.0 0.00 0.18 0.00 43 1013.6
20190123234305 66 297 0.0 2.0 0.00 0.18 0.00 46 1013.7
20190123233805 65 297 1.0 3.0 0.00 0.18 0.00 45 1013.6
20190123233305 64 302 0.0 2.0 0.00 0.18 0.00 43 1013.7
20190123232804 64 302 1.0 3.0 0.00 0.18 0.00 43 1013.8
20190123232305 65 302 2.0 5.0 0.00 0.18 0.00 43 1013.8
20190123231804 66 302 0.0 2.0 0.00 0.18 0.00 43 1013.8
20190123231304 65 302 0.0 1.0 0.00 0.18 0.00 46 1013.8
20190123230804 64 302 1.0 5.0 0.00 0.18 0.00 46 1013.9
20190123230304 64 272 2.0 8.0 0.00 0.18 0.00 45 1013.9
20190123225805 63 15 1.0 6.0 0.00 0.18 0.00 46 1013.9
20190123225305 64 267 2.0 6.0 0.00 0.18 0.00 46 1013.9
20190123224805 64 223 0.0 3.0 0.00 0.18 0.00 45 1013.9
20190123224304 65 223 0.0 5.0 0.00 0.18 0.00 45 1013.9
20190123223805 65 119 0.0 3.0 0.00 0.18 0.00 46 1013.9
20190123223304 64 117 0.0 3.0 0.00 0.18 0.00 47 1013.9
20190123222805 64 111 1.0 3.0 0.00 0.18 0.00 46 1013.9
20190123222304 64 111 0.0 2.0 0.00 0.18 0.00 45 1013.9
20190123221805 64 111 1.0 3.0 0.00 0.18 0.00 44 1014.0
20190123221304 65 111 1.0 2.0 0.00 0.18 0.00 45 1014.0
20190123220806 64 109 1.0 3.0 0.00 0.18 0.00 47 1013.9
20190123220304 64 201 2.0 6.0 0.00 0.18 0.00 46 1013.9
20190123215805 65 242 1.0 3.0 0.00 0.18 0.00 44 1014.0
20190123215305 66 247 0.0 2.0 0.00 0.18 0.00 46 1014.0
20190123214804 65 247 0.0 2.0 0.00 0.18 0.00 47 1014.1
20190123214305 64 247 0.0 1.0 0.00 0.18 0.00 46 1014.0
20190123213805 63 247 0.0 2.0 0.00 0.18 0.00 48 1014.1
20190123213304 62 247 0.0 2.0 0.00 0.18 0.00 51 1014.0
20190123212805 62 247 1.0 3.0 0.00 0.18 0.00 50 1014.0
20190123212306 64 242 1.0 8.0 0.00 0.18 0.00 50 1014.0
20190123211804 63 116 0.0 3.0 0.00 0.18 0.00 53 1014.0
20190123211304 62 116 0.0 3.0 0.00 0.18 0.00 54 1013.9
20190123210805 61 116 1.0 3.0 0.00 0.18 0.00 53 1013.9
20190123210304 62 115 1.0 6.0 0.00 0.18 0.00 52 1013.9
20190123205805 62 108 0.0 3.0 0.00 0.18 0.00 54 1013.9
20190123205305 62 108 3.0 10.0 0.00 0.18 0.00 51 1013.9
20190123204805 62 170 0.0 1.0 0.00 0.18 0.00 51 1013.9
20190123204305 61 170 0.0 6.0 0.00 0.18 0.00 53 1013.9
20190123203804 60 266 0.0 2.0 0.00 0.18 0.00 56 1013.8
20190123203305 60 266 1.0 3.0 0.00 0.18 0.00 56 1013.8
20190123202804 59 266 0.0 1.0 0.00 0.18 0.00 57 1013.7
20190123202304 58 266 0.0 1.0 0.00 0.18 0.00 59 1013.8
20190123201805 58 265 1.0 3.0 0.00 0.18 0.00 61 1013.7
20190123201304 58 266 0.0 1.0 0.00 0.18 0.00 61 1013.6
20190123200804 58 266 1.0 6.0 0.00 0.18 0.00 61 1013.5
20190123200304 58 265 0.0 1.0 0.00 0.18 0.00 63 1013.5
20190123195804 58 266 1.0 3.0 0.00 0.18 0.00 64 1013.5
20190123195305 57 266 0.0 2.0 0.00 0.18 0.00 65 1013.5
20190123194805 56 266 1.0 3.0 0.00 0.18 0.00 65 1013.4
20190123194304 56 266 0.0 2.0 0.00 0.18 0.00 66 1013.3
20190123193805 56 266 0.0 1.0 0.00 0.18 0.00 68 1013.2
20190123193304 56 266 0.0 1.0 0.00 0.18 0.00 71 1013.1
20190123192805 55 266 0.0 1.0 0.00 0.18 0.00 71 1013.0
20190123192305 54 266 0.0 1.0 0.00 0.18 0.00 72 1013.0
20190123191805 54 266 0.0 1.0 0.00 0.18 0.00 72 1012.9
20190123191305 53 266 0.0 2.0 0.00 0.18 0.00 73 1012.8
20190123190804 53 266 0.0 3.0 0.00 0.18 0.00 75 1012.7
20190123190305 52 266 0.0 0.0 0.00 0.18 0.00 78 1012.7
20190123185804 52 266 0.0 0.0 0.00 0.18 0.00 78 1012.6
20190123185305 52 266 0.0 1.0 0.00 0.18 0.00 80 1012.5
20190123184805 51 266 0.0 1.0 0.00 0.18 0.00 82 1012.5
20190123184304 51 266 0.0 1.0 0.00 0.18 0.00 85 1012.4
20190123183804 50 266 0.0 0.0 0.00 0.18 0.00 87 1012.3
20190123183304 50 266 0.0 0.0 0.00 0.18 0.00 88 1012.3
20190123182804 50 266 0.0 0.0 0.00 0.18 0.00 89 1012.2
20190123182304 50 266 0.0 0.0 0.00 0.18 0.00 89 1012.1
20190123181805 50 266 0.0 0.0 0.00 0.18 0.00 91 1012.1
20190123181305 50 266 0.0 0.0 0.00 0.18 0.00 91 1012.0
20190123180805 49 266 0.0 0.0 0.00 0.18 0.00 91 1011.9
20190123180304 48 266 0.0 0.0 0.00 0.18 0.00 91 1011.8
20190123175804 48 266 0.0 0.0 0.00 0.18 0.00 90 1011.7
20190123175304 47 266 0.0 0.0 0.00 0.18 0.00 90 1011.6
20190123174804 47 266 0.0 0.0 0.00 0.18 0.00 90 1011.6
20190123174304 47 266 0.0 0.0 0.00 0.18 0.00 90 1011.5
20190123173804 47 266 0.0 3.0 0.00 0.18 0.00 90 1011.4
20190123173307 47 266 0.0 0.0 0.00 0.18 0.00 90 1011.4
20190123172805 47 266 0.0 0.0 0.00 0.18 0.00 90 1011.3
20190123172305 47 266 0.0 0.0 0.00 0.18 0.00 90 1011.2
20190123171804 47 266 0.0 0.0 0.00 0.18 0.00 90 1011.1
20190123171304 47 266 0.0 0.0 0.00 0.18 0.00 90 1010.8
20190123170804 47 266 0.0 0.0 0.00 0.18 0.00 89 1010.7
20190123170305 47 266 0.0 15.0 0.00 0.18 0.00 89 1010.6